sensor_id;sensor_type;location;lat;lon;timestamp;P1;durP1;ratioP1;P2;durP2;ratioP2
50337;SDS011;46221;51.178;5.900;2022-09-27T00:00:08;4.40;;;0.98;;
50337;SDS011;46221;51.178;5.900;2022-09-27T00:02:36;3.13;;;0.80;;
50337;SDS011;46221;51.178;5.900;2022-09-27T00:05:03;3.63;;;1.15;;
50337;SDS011;46221;51.178;5.900;2022-09-27T00:07:29;2.83;;;0.90;;
50337;SDS011;46221;51.178;5.900;2022-09-27T00:09:55;3.45;;;0.90;;
50337;SDS011;46221;51.178;5.900;2022-09-27T00:12:22;3.35;;;0.93;;
50337;SDS011;46221;51.178;5.900;2022-09-27T00:14:49;2.78;;;0.80;;
50337;SDS011;46221;51.178;5.900;2022-09-27T00:17:15;3.60;;;1.02;;
50337;SDS011;46221;51.178;5.900;2022-09-27T00:19:44;2.85;;;1.50;;
50337;SDS011;46221;51.178;5.900;2022-09-27T00:22:10;3.17;;;1.30;;
50337;SDS011;46221;51.178;5.900;2022-09-27T00:24:36;4.70;;;1.00;;
50337;SDS011;46221;51.178;5.900;2022-09-27T00:27:03;3.42;;;1.50;;
50337;SDS011;46221;51.178;5.900;2022-09-27T00:29:29;5.55;;;1.58;;
50337;SDS011;46221;51.178;5.900;2022-09-27T00:31:55;4.35;;;1.10;;
50337;SDS011;46221;51.178;5.900;2022-09-27T00:34:23;3.15;;;1.08;;
50337;SDS011;46221;51.178;5.900;2022-09-27T00:36:50;4.78;;;1.15;;
50337;SDS011;46221;51.178;5.900;2022-09-27T00:39:16;4.57;;;1.55;;
50337;SDS011;46221;51.178;5.900;2022-09-27T00:41:45;3.28;;;1.35;;
50337;SDS011;46221;51.178;5.900;2022-09-27T00:46:54;2.08;;;1.00;;
50337;SDS011;46221;51.178;5.900;2022-09-27T00:51:52;2.25;;;1.00;;
50337;SDS011;46221;51.178;5.900;2022-09-27T00:54:19;2.85;;;0.95;;
50337;SDS011;46221;51.178;5.900;2022-09-27T00:56:48;2.13;;;0.95;;
50337;SDS011;46221;51.178;5.900;2022-09-27T00:59:16;2.97;;;0.95;;
50337;SDS011;46221;51.178;5.900;2022-09-27T01:01:44;4.43;;;1.42;;
50337;SDS011;46221;51.178;5.900;2022-09-27T01:04:12;2.42;;;0.88;;
50337;SDS011;46221;51.178;5.900;2022-09-27T01:06:39;3.78;;;0.80;;
50337;SDS011;46221;51.178;5.900;2022-09-27T01:09:05;1.73;;;0.82;;
50337;SDS011;46221;51.178;5.900;2022-09-27T01:21:59;2.13;;;0.73;;
50337;SDS011;46221;51.178;5.900;2022-09-27T01:32:32;2.38;;;0.80;;
50337;SDS011;46221;51.178;5.900;2022-09-27T01:35:05;1.63;;;0.65;;
50337;SDS011;46221;51.178;5.900;2022-09-27T01:47:41;2.15;;;0.90;;
50337;SDS011;46221;51.178;5.900;2022-09-27T01:50:10;1.77;;;0.73;;
50337;SDS011;46221;51.178;5.900;2022-09-27T01:52:50;2.15;;;0.60;;
50337;SDS011;46221;51.178;5.900;2022-09-27T01:55:18;2.33;;;0.60;;
50337;SDS011;46221;51.178;5.900;2022-09-27T01:57:48;1.67;;;0.63;;
50337;SDS011;46221;51.178;5.900;2022-09-27T02:00:16;1.77;;;0.70;;
50337;SDS011;46221;51.178;5.900;2022-09-27T02:02:54;2.58;;;0.70;;
50337;SDS011;46221;51.178;5.900;2022-09-27T02:05:22;3.00;;;0.77;;
50337;SDS011;46221;51.178;5.900;2022-09-27T02:08:00;2.28;;;0.98;;
50337;SDS011;46221;51.178;5.900;2022-09-27T02:10:32;2.80;;;0.70;;
50337;SDS011;46221;51.178;5.900;2022-09-27T02:13:03;2.08;;;0.65;;
50337;SDS011;46221;51.178;5.900;2022-09-27T02:15:33;1.95;;;0.70;;
50337;SDS011;46221;51.178;5.900;2022-09-27T02:18:09;1.77;;;0.70;;
50337;SDS011;46221;51.178;5.900;2022-09-27T02:20:39;4.03;;;0.85;;
50337;SDS011;46221;51.178;5.900;2022-09-27T02:23:22;2.47;;;0.85;;
50337;SDS011;46221;51.178;5.900;2022-09-27T02:25:57;3.47;;;0.73;;
50337;SDS011;46221;51.178;5.900;2022-09-27T02:28:32;2.45;;;0.85;;
50337;SDS011;46221;51.178;5.900;2022-09-27T02:31:00;4.32;;;0.80;;
50337;SDS011;46221;51.178;5.900;2022-09-27T02:33:28;1.65;;;0.50;;
50337;SDS011;46221;51.178;5.900;2022-09-27T02:35:56;1.98;;;0.80;;
50337;SDS011;46221;51.178;5.900;2022-09-27T02:38:23;1.45;;;0.60;;
50337;SDS011;46221;51.178;5.900;2022-09-27T02:40:49;2.72;;;0.60;;
50337;SDS011;46221;51.178;5.900;2022-09-27T02:43:16;3.47;;;0.85;;
50337;SDS011;46221;51.178;5.900;2022-09-27T02:48:15;2.75;;;0.60;;
50337;SDS011;46221;51.178;5.900;2022-09-27T02:58:57;1.98;;;0.55;;
50337;SDS011;46221;51.178;5.900;2022-09-27T03:03:58;1.23;;;0.30;;
50337;SDS011;46221;51.178;5.900;2022-09-27T03:06:25;1.60;;;0.55;;
50337;SDS011;46221;51.178;5.900;2022-09-27T03:08:53;2.42;;;0.65;;
50337;SDS011;46221;51.178;5.900;2022-09-27T03:11:21;1.55;;;0.50;;
50337;SDS011;46221;51.178;5.900;2022-09-27T03:13:48;1.65;;;0.57;;
50337;SDS011;46221;51.178;5.900;2022-09-27T03:16:34;2.70;;;0.50;;
50337;SDS011;46221;51.178;5.900;2022-09-27T03:19:00;1.88;;;0.60;;
50337;SDS011;46221;51.178;5.900;2022-09-27T03:21:26;2.72;;;0.60;;
50337;SDS011;46221;51.178;5.900;2022-09-27T03:23:54;2.88;;;0.57;;
50337;SDS011;46221;51.178;5.900;2022-09-27T03:26:20;4.38;;;0.60;;
50337;SDS011;46221;51.178;5.900;2022-09-27T03:28:46;1.48;;;0.45;;
50337;SDS011;46221;51.178;5.900;2022-09-27T03:31:12;2.88;;;0.70;;
50337;SDS011;46221;51.178;5.900;2022-09-27T03:33:39;2.22;;;0.50;;
50337;SDS011;46221;51.178;5.900;2022-09-27T03:36:06;1.30;;;0.40;;
50337;SDS011;46221;51.178;5.900;2022-09-27T03:38:32;1.90;;;0.45;;
50337;SDS011;46221;51.178;5.900;2022-09-27T03:40:58;1.33;;;0.50;;
50337;SDS011;46221;51.178;5.900;2022-09-27T03:43:25;1.13;;;0.43;;
50337;SDS011;46221;51.178;5.900;2022-09-27T03:45:51;2.13;;;0.70;;
50337;SDS011;46221;51.178;5.900;2022-09-27T03:48:18;1.92;;;0.50;;
50337;SDS011;46221;51.178;5.900;2022-09-27T03:50:44;1.42;;;0.50;;
50337;SDS011;46221;51.178;5.900;2022-09-27T03:53:11;2.00;;;0.40;;
50337;SDS011;46221;51.178;5.900;2022-09-27T03:55:37;2.17;;;0.50;;
50337;SDS011;46221;51.178;5.900;2022-09-27T03:58:03;1.05;;;0.40;;
50337;SDS011;46221;51.178;5.900;2022-09-27T04:00:30;3.22;;;0.52;;
50337;SDS011;46221;51.178;5.900;2022-09-27T04:02:58;2.13;;;0.57;;
50337;SDS011;46221;51.178;5.900;2022-09-27T04:05:25;1.55;;;0.40;;
50337;SDS011;46221;51.178;5.900;2022-09-27T04:07:52;2.00;;;0.47;;
50337;SDS011;46221;51.178;5.900;2022-09-27T04:10:18;4.15;;;0.88;;
50337;SDS011;46221;51.178;5.900;2022-09-27T04:12:48;2.13;;;0.50;;
50337;SDS011;46221;51.178;5.900;2022-09-27T04:15:15;1.60;;;0.25;;
50337;SDS011;46221;51.178;5.900;2022-09-27T04:17:42;3.22;;;0.50;;
50337;SDS011;46221;51.178;5.900;2022-09-27T04:20:09;2.47;;;0.73;;
50337;SDS011;46221;51.178;5.900;2022-09-27T04:22:41;4.57;;;0.73;;
50337;SDS011;46221;51.178;5.900;2022-09-27T04:25:09;1.25;;;0.40;;
50337;SDS011;46221;51.178;5.900;2022-09-27T04:27:36;2.40;;;0.50;;
50337;SDS011;46221;51.178;5.900;2022-09-27T04:30:03;1.13;;;0.30;;
50337;SDS011;46221;51.178;5.900;2022-09-27T04:32:29;2.53;;;0.65;;
50337;SDS011;46221;51.178;5.900;2022-09-27T04:34:55;1.50;;;0.50;;
50337;SDS011;46221;51.178;5.900;2022-09-27T04:37:40;1.15;;;0.35;;
50337;SDS011;46221;51.178;5.900;2022-09-27T04:40:08;3.00;;;0.50;;
50337;SDS011;46221;51.178;5.900;2022-09-27T04:42:35;1.52;;;0.30;;
50337;SDS011;46221;51.178;5.900;2022-09-27T04:45:01;2.63;;;0.70;;
50337;SDS011;46221;51.178;5.900;2022-09-27T04:47:27;2.92;;;0.55;;
50337;SDS011;46221;51.178;5.900;2022-09-27T04:49:54;4.72;;;0.70;;
50337;SDS011;46221;51.178;5.900;2022-09-27T04:52:20;2.40;;;0.60;;
50337;SDS011;46221;51.178;5.900;2022-09-27T04:54:47;2.25;;;0.50;;
50337;SDS011;46221;51.178;5.900;2022-09-27T04:57:13;2.60;;;0.60;;
50337;SDS011;46221;51.178;5.900;2022-09-27T04:59:39;1.92;;;0.50;;
50337;SDS011;46221;51.178;5.900;2022-09-27T05:02:07;1.63;;;0.50;;
50337;SDS011;46221;51.178;5.900;2022-09-27T05:04:34;1.45;;;0.45;;
50337;SDS011;46221;51.178;5.900;2022-09-27T05:07:01;1.92;;;0.50;;
50337;SDS011;46221;51.178;5.900;2022-09-27T05:09:27;1.92;;;0.55;;
50337;SDS011;46221;51.178;5.900;2022-09-27T05:11:54;10.40;;;0.80;;
50337;SDS011;46221;51.178;5.900;2022-09-27T05:14:20;2.67;;;0.80;;
50337;SDS011;46221;51.178;5.900;2022-09-27T05:16:47;2.13;;;0.50;;
50337;SDS011;46221;51.178;5.900;2022-09-27T05:19:13;4.30;;;0.70;;
50337;SDS011;46221;51.178;5.900;2022-09-27T05:21:39;3.20;;;0.47;;
50337;SDS011;46221;51.178;5.900;2022-09-27T05:24:06;2.28;;;0.50;;
50337;SDS011;46221;51.178;5.900;2022-09-27T05:26:32;3.13;;;0.80;;
50337;SDS011;46221;51.178;5.900;2022-09-27T05:28:58;3.75;;;0.90;;
50337;SDS011;46221;51.178;5.900;2022-09-27T05:31:25;4.85;;;0.88;;
50337;SDS011;46221;51.178;5.900;2022-09-27T05:33:54;4.32;;;0.80;;
50337;SDS011;46221;51.178;5.900;2022-09-27T05:36:20;3.60;;;0.95;;
50337;SDS011;46221;51.178;5.900;2022-09-27T05:38:48;3.63;;;1.10;;
50337;SDS011;46221;51.178;5.900;2022-09-27T05:41:15;5.38;;;0.90;;
50337;SDS011;46221;51.178;5.900;2022-09-27T05:43:42;3.45;;;1.13;;
50337;SDS011;46221;51.178;5.900;2022-09-27T05:46:08;4.45;;;0.88;;
50337;SDS011;46221;51.178;5.900;2022-09-27T05:48:35;3.03;;;0.70;;
50337;SDS011;46221;51.178;5.900;2022-09-27T05:51:02;2.25;;;0.98;;
50337;SDS011;46221;51.178;5.900;2022-09-27T05:53:28;3.03;;;0.57;;
50337;SDS011;46221;51.178;5.900;2022-09-27T05:56:00;2.83;;;0.70;;
50337;SDS011;46221;51.178;5.900;2022-09-27T05:58:26;1.55;;;0.60;;
50337;SDS011;46221;51.178;5.900;2022-09-27T06:00:53;2.70;;;0.52;;
50337;SDS011;46221;51.178;5.900;2022-09-27T06:03:19;4.72;;;0.80;;
50337;SDS011;46221;51.178;5.900;2022-09-27T06:05:45;4.25;;;1.15;;
50337;SDS011;46221;51.178;5.900;2022-09-27T06:08:16;3.63;;;0.60;;
50337;SDS011;46221;51.178;5.900;2022-09-27T06:10:45;3.33;;;0.80;;
50337;SDS011;46221;51.178;5.900;2022-09-27T06:13:13;4.03;;;0.73;;
50337;SDS011;46221;51.178;5.900;2022-09-27T06:15:41;2.85;;;0.50;;
50337;SDS011;46221;51.178;5.900;2022-09-27T06:18:09;1.75;;;0.50;;
50337;SDS011;46221;51.178;5.900;2022-09-27T06:20:36;2.45;;;0.40;;
50337;SDS011;46221;51.178;5.900;2022-09-27T06:23:07;2.33;;;0.35;;
50337;SDS011;46221;51.178;5.900;2022-09-27T06:25:34;1.25;;;0.40;;
50337;SDS011;46221;51.178;5.900;2022-09-27T06:28:02;4.25;;;0.70;;
50337;SDS011;46221;51.178;5.900;2022-09-27T06:30:28;1.40;;;0.38;;
50337;SDS011;46221;51.178;5.900;2022-09-27T06:32:56;1.63;;;0.50;;
50337;SDS011;46221;51.178;5.900;2022-09-27T06:35:22;3.65;;;0.70;;
50337;SDS011;46221;51.178;5.900;2022-09-27T06:37:50;4.22;;;0.50;;
50337;SDS011;46221;51.178;5.900;2022-09-27T06:40:17;2.40;;;0.52;;
50337;SDS011;46221;51.178;5.900;2022-09-27T06:42:44;1.58;;;0.50;;
50337;SDS011;46221;51.178;5.900;2022-09-27T06:45:10;1.50;;;0.57;;
50337;SDS011;46221;51.178;5.900;2022-09-27T06:47:37;1.45;;;0.43;;
50337;SDS011;46221;51.178;5.900;2022-09-27T06:50:03;1.40;;;0.40;;
50337;SDS011;46221;51.178;5.900;2022-09-27T06:52:31;2.47;;;0.50;;
50337;SDS011;46221;51.178;5.900;2022-09-27T06:54:57;2.33;;;0.40;;
50337;SDS011;46221;51.178;5.900;2022-09-27T06:57:24;1.90;;;0.60;;
50337;SDS011;46221;51.178;5.900;2022-09-27T07:00:09;0.70;;;0.30;;
50337;SDS011;46221;51.178;5.900;2022-09-27T07:02:56;1.35;;;0.30;;
50337;SDS011;46221;51.178;5.900;2022-09-27T07:05:26;1.45;;;0.35;;
50337;SDS011;46221;51.178;5.900;2022-09-27T07:07:54;1.30;;;0.45;;
50337;SDS011;46221;51.178;5.900;2022-09-27T07:10:23;1.85;;;0.40;;
50337;SDS011;46221;51.178;5.900;2022-09-27T07:12:50;2.08;;;0.40;;
50337;SDS011;46221;51.178;5.900;2022-09-27T07:15:17;1.15;;;0.43;;
50337;SDS011;46221;51.178;5.900;2022-09-27T07:17:46;1.75;;;0.47;;
50337;SDS011;46221;51.178;5.900;2022-09-27T07:20:13;1.98;;;0.47;;
50337;SDS011;46221;51.178;5.900;2022-09-27T07:22:42;0.40;;;0.20;;
50337;SDS011;46221;51.178;5.900;2022-09-27T07:25:10;1.08;;;0.30;;
50337;SDS011;46221;51.178;5.900;2022-09-27T07:27:38;4.13;;;0.35;;
50337;SDS011;46221;51.178;5.900;2022-09-27T07:30:07;1.20;;;0.43;;
50337;SDS011;46221;51.178;5.900;2022-09-27T07:32:34;1.23;;;0.40;;
50337;SDS011;46221;51.178;5.900;2022-09-27T07:35:03;1.02;;;0.20;;
50337;SDS011;46221;51.178;5.900;2022-09-27T07:37:30;1.52;;;0.30;;
50337;SDS011;46221;51.178;5.900;2022-09-27T07:39:57;0.35;;;0.20;;
50337;SDS011;46221;51.178;5.900;2022-09-27T07:42:24;1.65;;;0.30;;
50337;SDS011;46221;51.178;5.900;2022-09-27T07:44:50;1.13;;;0.43;;
50337;SDS011;46221;51.178;5.900;2022-09-27T07:47:16;3.47;;;0.60;;
50337;SDS011;46221;51.178;5.900;2022-09-27T07:49:44;0.70;;;0.30;;
50337;SDS011;46221;51.178;5.900;2022-09-27T07:52:10;3.05;;;0.65;;
50337;SDS011;46221;51.178;5.900;2022-09-27T07:54:38;2.47;;;0.50;;
50337;SDS011;46221;51.178;5.900;2022-09-27T07:57:04;1.02;;;0.40;;
50337;SDS011;46221;51.178;5.900;2022-09-27T07:59:30;1.33;;;0.43;;
50337;SDS011;46221;51.178;5.900;2022-09-27T08:01:56;1.77;;;0.60;;
50337;SDS011;46221;51.178;5.900;2022-09-27T08:04:23;1.40;;;0.73;;
50337;SDS011;46221;51.178;5.900;2022-09-27T08:06:49;2.85;;;0.77;;
50337;SDS011;46221;51.178;5.900;2022-09-27T08:09:15;2.40;;;0.65;;
50337;SDS011;46221;51.178;5.900;2022-09-27T08:11:42;1.88;;;0.50;;
50337;SDS011;46221;51.178;5.900;2022-09-27T08:14:10;1.65;;;0.55;;
50337;SDS011;46221;51.178;5.900;2022-09-27T08:16:36;4.15;;;0.75;;
50337;SDS011;46221;51.178;5.900;2022-09-27T08:19:02;2.67;;;1.08;;
50337;SDS011;46221;51.178;5.900;2022-09-27T08:21:29;1.63;;;0.68;;
50337;SDS011;46221;51.178;5.900;2022-09-27T08:23:55;2.33;;;0.63;;
50337;SDS011;46221;51.178;5.900;2022-09-27T08:26:22;2.35;;;0.80;;
50337;SDS011;46221;51.178;5.900;2022-09-27T08:28:48;1.70;;;0.57;;
50337;SDS011;46221;51.178;5.900;2022-09-27T08:31:14;3.80;;;0.85;;
50337;SDS011;46221;51.178;5.900;2022-09-27T08:33:41;1.65;;;0.70;;
50337;SDS011;46221;51.178;5.900;2022-09-27T08:36:11;2.50;;;0.60;;
50337;SDS011;46221;51.178;5.900;2022-09-27T08:38:37;1.30;;;0.50;;
50337;SDS011;46221;51.178;5.900;2022-09-27T08:41:06;1.35;;;0.45;;
50337;SDS011;46221;51.178;5.900;2022-09-27T08:43:45;2.50;;;0.85;;
50337;SDS011;46221;51.178;5.900;2022-09-27T08:48:52;1.45;;;0.70;;
50337;SDS011;46221;51.178;5.900;2022-09-27T08:51:20;3.53;;;0.77;;
50337;SDS011;46221;51.178;5.900;2022-09-27T08:53:51;2.72;;;0.70;;
50337;SDS011;46221;51.178;5.900;2022-09-27T08:56:19;2.65;;;0.80;;
50337;SDS011;46221;51.178;5.900;2022-09-27T08:58:48;1.42;;;0.65;;
50337;SDS011;46221;51.178;5.900;2022-09-27T09:01:16;3.45;;;0.80;;
50337;SDS011;46221;51.178;5.900;2022-09-27T09:03:43;2.78;;;0.75;;
50337;SDS011;46221;51.178;5.900;2022-09-27T09:06:13;1.50;;;0.70;;
50337;SDS011;46221;51.178;5.900;2022-09-27T09:14:07;1.80;;;0.50;;
50337;SDS011;46221;51.178;5.900;2022-09-27T09:16:57;1.38;;;0.50;;
50337;SDS011;46221;51.178;5.900;2022-09-27T09:31:57;2.08;;;0.98;;
50337;SDS011;46221;51.178;5.900;2022-09-27T09:34:41;2.78;;;1.02;;
50337;SDS011;46221;51.178;5.900;2022-09-27T09:44:54;3.75;;;0.90;;
50337;SDS011;46221;51.178;5.900;2022-09-27T09:50:20;1.98;;;1.10;;
50337;SDS011;46221;51.178;5.900;2022-09-27T09:52:49;2.22;;;0.70;;
50337;SDS011;46221;51.178;5.900;2022-09-27T09:55:22;2.15;;;0.95;;
50337;SDS011;46221;51.178;5.900;2022-09-27T10:00:21;3.17;;;1.05;;
50337;SDS011;46221;51.178;5.900;2022-09-27T10:02:47;1.38;;;0.82;;
50337;SDS011;46221;51.178;5.900;2022-09-27T10:05:15;2.45;;;0.80;;
50337;SDS011;46221;51.178;5.900;2022-09-27T10:07:43;2.67;;;1.23;;
50337;SDS011;46221;51.178;5.900;2022-09-27T10:10:12;3.13;;;1.23;;
50337;SDS011;46221;51.178;5.900;2022-09-27T10:12:38;4.60;;;1.23;;
50337;SDS011;46221;51.178;5.900;2022-09-27T10:15:05;4.75;;;1.17;;
50337;SDS011;46221;51.178;5.900;2022-09-27T10:17:36;1.80;;;0.90;;
50337;SDS011;46221;51.178;5.900;2022-09-27T10:20:04;2.60;;;0.98;;
50337;SDS011;46221;51.178;5.900;2022-09-27T10:22:36;3.63;;;1.10;;
50337;SDS011;46221;51.178;5.900;2022-09-27T10:25:04;2.90;;;1.20;;
50337;SDS011;46221;51.178;5.900;2022-09-27T10:27:46;3.00;;;1.20;;
50337;SDS011;46221;51.178;5.900;2022-09-27T10:30:20;3.13;;;1.10;;
50337;SDS011;46221;51.178;5.900;2022-09-27T10:32:49;3.22;;;1.30;;
50337;SDS011;46221;51.178;5.900;2022-09-27T10:38:40;5.00;;;1.73;;
50337;SDS011;46221;51.178;5.900;2022-09-27T10:40:42;3.45;;;1.25;;
50337;SDS011;46221;51.178;5.900;2022-09-27T10:48:45;3.15;;;1.10;;
50337;SDS011;46221;51.178;5.900;2022-09-27T10:51:25;2.33;;;0.98;;
50337;SDS011;46221;51.178;5.900;2022-09-27T10:53:52;1.67;;;0.80;;
50337;SDS011;46221;51.178;5.900;2022-09-27T10:56:22;2.50;;;0.90;;
50337;SDS011;46221;51.178;5.900;2022-09-27T10:58:50;2.83;;;1.00;;
50337;SDS011;46221;51.178;5.900;2022-09-27T11:01:16;2.67;;;1.20;;
50337;SDS011;46221;51.178;5.900;2022-09-27T11:03:54;3.17;;;0.90;;
50337;SDS011;46221;51.178;5.900;2022-09-27T11:06:26;3.67;;;1.30;;
50337;SDS011;46221;51.178;5.900;2022-09-27T11:08:53;2.42;;;1.00;;
50337;SDS011;46221;51.178;5.900;2022-09-27T11:11:24;2.35;;;1.10;;
50337;SDS011;46221;51.178;5.900;2022-09-27T11:29:34;2.17;;;0.70;;
50337;SDS011;46221;51.178;5.900;2022-09-27T11:32:22;1.77;;;0.70;;
50337;SDS011;46221;51.178;5.900;2022-09-27T11:40:14;1.20;;;0.70;;
50337;SDS011;46221;51.178;5.900;2022-09-27T12:01:05;2.95;;;0.60;;
50337;SDS011;46221;51.178;5.900;2022-09-27T12:03:42;0.82;;;0.40;;
50337;SDS011;46221;51.178;5.900;2022-09-27T12:06:15;1.38;;;0.47;;
50337;SDS011;46221;51.178;5.900;2022-09-27T12:14:10;2.43;;;0.50;;
50337;SDS011;46221;51.178;5.900;2022-09-27T12:16:40;1.13;;;0.65;;
50337;SDS011;46221;51.178;5.900;2022-09-27T12:19:17;1.00;;;0.50;;
50337;SDS011;46221;51.178;5.900;2022-09-27T12:21:44;2.67;;;0.60;;
50337;SDS011;46221;51.178;5.900;2022-09-27T12:24:14;1.63;;;0.45;;
50337;SDS011;46221;51.178;5.900;2022-09-27T12:26:43;2.15;;;0.65;;
50337;SDS011;46221;51.178;5.900;2022-09-27T12:29:26;1.40;;;0.90;;
50337;SDS011;46221;51.178;5.900;2022-09-27T12:32:00;1.45;;;0.60;;
50337;SDS011;46221;51.178;5.900;2022-09-27T12:34:29;1.67;;;0.70;;
50337;SDS011;46221;51.178;5.900;2022-09-27T12:37:12;2.85;;;0.55;;
50337;SDS011;46221;51.178;5.900;2022-09-27T12:39:44;1.85;;;0.50;;
50337;SDS011;46221;51.178;5.900;2022-09-27T12:42:18;2.13;;;0.60;;
50337;SDS011;46221;51.178;5.900;2022-09-27T12:44:45;2.03;;;0.80;;
50337;SDS011;46221;51.178;5.900;2022-09-27T12:49:53;2.13;;;0.63;;
50337;SDS011;46221;51.178;5.900;2022-09-27T12:52:28;1.70;;;0.65;;
50337;SDS011;46221;51.178;5.900;2022-09-27T12:57:36;4.10;;;0.70;;
50337;SDS011;46221;51.178;5.900;2022-09-27T13:00:05;1.92;;;0.60;;
50337;SDS011;46221;51.178;5.900;2022-09-27T13:05:30;1.55;;;0.70;;
50337;SDS011;46221;51.178;5.900;2022-09-27T13:08:18;2.17;;;0.82;;
50337;SDS011;46221;51.178;5.900;2022-09-27T13:10:51;3.88;;;1.60;;
50337;SDS011;46221;51.178;5.900;2022-09-27T13:13:20;1.50;;;0.70;;
50337;SDS011;46221;51.178;5.900;2022-09-27T13:15:49;1.00;;;0.55;;
50337;SDS011;46221;51.178;5.900;2022-09-27T13:18:48;3.00;;;1.15;;
50337;SDS011;46221;51.178;5.900;2022-09-27T13:24:16;1.33;;;0.57;;
50337;SDS011;46221;51.178;5.900;2022-09-27T13:26:49;1.25;;;0.82;;
50337;SDS011;46221;51.178;5.900;2022-09-27T13:29:20;1.95;;;0.63;;
50337;SDS011;46221;51.178;5.900;2022-09-27T13:34:39;2.03;;;0.65;;
50337;SDS011;46221;51.178;5.900;2022-09-27T13:40:08;2.22;;;0.63;;
50337;SDS011;46221;51.178;5.900;2022-09-27T13:42:36;5.95;;;0.90;;
50337;SDS011;46221;51.178;5.900;2022-09-27T13:47:35;1.75;;;0.60;;
50337;SDS011;46221;51.178;5.900;2022-09-27T13:50:16;2.95;;;0.77;;
50337;SDS011;46221;51.178;5.900;2022-09-27T13:52:45;2.65;;;0.70;;
50337;SDS011;46221;51.178;5.900;2022-09-27T13:58:11;1.15;;;0.60;;
50337;SDS011;46221;51.178;5.900;2022-09-27T14:00:41;2.17;;;0.60;;
50337;SDS011;46221;51.178;5.900;2022-09-27T14:05:45;2.22;;;0.65;;
50337;SDS011;46221;51.178;5.900;2022-09-27T14:08:34;1.98;;;0.73;;
50337;SDS011;46221;51.178;5.900;2022-09-27T14:10:59;3.25;;;0.88;;
50337;SDS011;46221;51.178;5.900;2022-09-27T14:13:26;2.97;;;1.00;;
50337;SDS011;46221;51.178;5.900;2022-09-27T14:15:54;2.70;;;0.80;;
50337;SDS011;46221;51.178;5.900;2022-09-27T14:18:23;2.53;;;0.90;;
50337;SDS011;46221;51.178;5.900;2022-09-27T14:20:50;2.63;;;0.90;;
50337;SDS011;46221;51.178;5.900;2022-09-27T14:23:19;3.53;;;0.77;;
50337;SDS011;46221;51.178;5.900;2022-09-27T14:25:46;3.03;;;1.00;;
50337;SDS011;46221;51.178;5.900;2022-09-27T14:28:20;2.15;;;0.80;;
50337;SDS011;46221;51.178;5.900;2022-09-27T14:30:47;2.00;;;0.80;;
50337;SDS011;46221;51.178;5.900;2022-09-27T14:33:30;3.42;;;0.70;;
50337;SDS011;46221;51.178;5.900;2022-09-27T14:35:57;3.03;;;0.70;;
50337;SDS011;46221;51.178;5.900;2022-09-27T14:38:49;2.50;;;0.80;;
50337;SDS011;46221;51.178;5.900;2022-09-27T14:41:15;1.75;;;0.52;;
50337;SDS011;46221;51.178;5.900;2022-09-27T14:43:42;2.65;;;0.85;;
50337;SDS011;46221;51.178;5.900;2022-09-27T14:46:20;4.05;;;0.77;;
50337;SDS011;46221;51.178;5.900;2022-09-27T14:48:48;2.20;;;0.80;;
50337;SDS011;46221;51.178;5.900;2022-09-27T14:51:23;2.35;;;0.70;;
50337;SDS011;46221;51.178;5.900;2022-09-27T14:53:53;1.67;;;0.63;;
50337;SDS011;46221;51.178;5.900;2022-09-27T14:56:29;1.65;;;0.50;;
50337;SDS011;46221;51.178;5.900;2022-09-27T14:59:00;2.92;;;0.90;;
50337;SDS011;46221;51.178;5.900;2022-09-27T15:01:28;2.92;;;0.80;;
50337;SDS011;46221;51.178;5.900;2022-09-27T15:03:55;3.85;;;0.68;;
50337;SDS011;46221;51.178;5.900;2022-09-27T15:06:22;1.83;;;0.70;;
50337;SDS011;46221;51.178;5.900;2022-09-27T15:08:49;1.85;;;0.50;;
50337;SDS011;46221;51.178;5.900;2022-09-27T15:11:16;1.90;;;0.73;;
50337;SDS011;46221;51.178;5.900;2022-09-27T15:13:45;2.25;;;0.52;;
50337;SDS011;46221;51.178;5.900;2022-09-27T15:16:15;1.95;;;0.60;;
50337;SDS011;46221;51.178;5.900;2022-09-27T15:18:46;0.98;;;0.47;;
50337;SDS011;46221;51.178;5.900;2022-09-27T15:21:13;3.38;;;0.57;;
50337;SDS011;46221;51.178;5.900;2022-09-27T15:23:41;1.88;;;0.60;;
50337;SDS011;46221;51.178;5.900;2022-09-27T15:26:09;3.00;;;0.60;;
50337;SDS011;46221;51.178;5.900;2022-09-27T15:28:42;2.33;;;0.68;;
50337;SDS011;46221;51.178;5.900;2022-09-27T15:31:10;3.00;;;0.80;;
50337;SDS011;46221;51.178;5.900;2022-09-27T15:33:36;3.97;;;0.80;;
50337;SDS011;46221;51.178;5.900;2022-09-27T15:36:07;3.67;;;1.02;;
50337;SDS011;46221;51.178;5.900;2022-09-27T15:41:08;2.55;;;0.90;;
50337;SDS011;46221;51.178;5.900;2022-09-27T15:43:39;4.55;;;1.10;;
50337;SDS011;46221;51.178;5.900;2022-09-27T15:51:37;2.80;;;1.08;;
50337;SDS011;46221;51.178;5.900;2022-09-27T15:54:04;3.17;;;0.90;;
50337;SDS011;46221;51.178;5.900;2022-09-27T15:56:30;2.22;;;1.00;;
50337;SDS011;46221;51.178;5.900;2022-09-27T15:58:57;3.05;;;1.10;;
50337;SDS011;46221;51.178;5.900;2022-09-27T16:01:24;2.13;;;0.80;;
50337;SDS011;46221;51.178;5.900;2022-09-27T16:03:50;8.60;;;1.70;;
50337;SDS011;46221;51.178;5.900;2022-09-27T16:06:17;4.68;;;1.35;;
50337;SDS011;46221;51.178;5.900;2022-09-27T16:08:43;4.10;;;1.33;;
50337;SDS011;46221;51.178;5.900;2022-09-27T16:11:14;3.55;;;1.13;;
50337;SDS011;46221;51.178;5.900;2022-09-27T16:13:40;4.05;;;1.13;;
50337;SDS011;46221;51.178;5.900;2022-09-27T16:16:10;3.63;;;1.10;;
50337;SDS011;46221;51.178;5.900;2022-09-27T16:18:40;4.45;;;1.63;;
50337;SDS011;46221;51.178;5.900;2022-09-27T16:21:06;4.85;;;1.45;;
50337;SDS011;46221;51.178;5.900;2022-09-27T16:23:32;11.52;;;2.50;;
50337;SDS011;46221;51.178;5.900;2022-09-27T16:25:59;6.97;;;1.63;;
50337;SDS011;46221;51.178;5.900;2022-09-27T16:28:25;4.35;;;1.50;;
50337;SDS011;46221;51.178;5.900;2022-09-27T16:30:51;7.93;;;1.60;;
50337;SDS011;46221;51.178;5.900;2022-09-27T16:33:18;6.47;;;1.40;;
50337;SDS011;46221;51.178;5.900;2022-09-27T16:35:44;6.93;;;1.92;;
50337;SDS011;46221;51.178;5.900;2022-09-27T16:38:10;7.70;;;1.95;;
50337;SDS011;46221;51.178;5.900;2022-09-27T16:40:37;12.20;;;1.98;;
50337;SDS011;46221;51.178;5.900;2022-09-27T16:43:03;8.75;;;2.10;;
50337;SDS011;46221;51.178;5.900;2022-09-27T16:45:33;7.47;;;2.72;;
50337;SDS011;46221;51.178;5.900;2022-09-27T16:48:01;12.45;;;2.33;;
50337;SDS011;46221;51.178;5.900;2022-09-27T16:50:27;7.20;;;2.20;;
50337;SDS011;46221;51.178;5.900;2022-09-27T16:53:12;7.88;;;2.85;;
50337;SDS011;46221;51.178;5.900;2022-09-27T16:55:39;5.97;;;2.00;;
50337;SDS011;46221;51.178;5.900;2022-09-27T16:58:05;8.63;;;1.80;;
50337;SDS011;46221;51.178;5.900;2022-09-27T17:00:33;6.25;;;1.88;;
50337;SDS011;46221;51.178;5.900;2022-09-27T17:03:00;8.95;;;2.42;;
50337;SDS011;46221;51.178;5.900;2022-09-27T17:05:26;4.68;;;1.70;;
50337;SDS011;46221;51.178;5.900;2022-09-27T17:07:52;5.85;;;1.77;;
50337;SDS011;46221;51.178;5.900;2022-09-27T17:10:19;6.53;;;1.95;;
50337;SDS011;46221;51.178;5.900;2022-09-27T17:12:46;5.10;;;1.73;;
50337;SDS011;46221;51.178;5.900;2022-09-27T17:15:12;5.32;;;1.75;;
50337;SDS011;46221;51.178;5.900;2022-09-27T17:17:39;5.80;;;2.03;;
50337;SDS011;46221;51.178;5.900;2022-09-27T17:20:05;5.13;;;1.58;;
50337;SDS011;46221;51.178;5.900;2022-09-27T17:22:31;6.80;;;2.55;;
50337;SDS011;46221;51.178;5.900;2022-09-27T17:24:58;8.13;;;2.15;;
50337;SDS011;46221;51.178;5.900;2022-09-27T17:27:25;6.03;;;1.58;;
50337;SDS011;46221;51.178;5.900;2022-09-27T17:29:52;7.65;;;1.60;;
50337;SDS011;46221;51.178;5.900;2022-09-27T17:32:19;4.70;;;1.50;;
50337;SDS011;46221;51.178;5.900;2022-09-27T17:34:49;7.70;;;1.98;;
50337;SDS011;46221;51.178;5.900;2022-09-27T17:37:16;7.15;;;1.88;;
50337;SDS011;46221;51.178;5.900;2022-09-27T17:39:42;8.02;;;2.20;;
50337;SDS011;46221;51.178;5.900;2022-09-27T17:42:08;6.35;;;1.90;;
50337;SDS011;46221;51.178;5.900;2022-09-27T17:44:35;7.88;;;2.10;;